createdAt,value
2023-02-27T05:12:29.715Z,0.00
2023-02-27T05:13:30.917Z,0.00
2023-02-27T05:14:30.845Z,0.00
2023-02-27T05:15:30.894Z,0.00
2023-02-27T05:16:30.870Z,0.00
2023-02-27T05:17:30.831Z,0.00
2023-02-27T05:18:30.830Z,0.00
2023-02-27T05:19:30.825Z,0.00
2023-02-27T05:20:30.793Z,0.00
2023-02-27T05:21:30.876Z,0.00
2023-02-27T05:22:30.751Z,0.00
2023-02-27T05:23:30.725Z,0.00
2023-02-27T05:24:30.741Z,0.00
2023-02-27T05:25:30.774Z,0.00
2023-02-27T05:26:30.766Z,0.00
2023-02-27T05:27:30.690Z,0.00
2023-02-27T05:28:30.713Z,0.00
2023-02-27T05:29:30.738Z,0.00
2023-02-27T05:30:30.693Z,0.00
2023-02-27T05:31:30.830Z,0.00
2023-02-27T05:32:30.743Z,0.00
2023-02-27T05:33:30.657Z,0.00
2023-02-27T05:34:30.622Z,0.00
2023-02-27T05:35:30.674Z,0.00
2023-02-27T05:36:30.554Z,4.00
2023-02-27T05:37:30.606Z,4.00
2023-02-27T05:38:30.597Z,0.00
2023-02-27T05:39:30.552Z,4.00
2023-02-27T05:40:31.567Z,4.00
2023-02-27T05:41:30.567Z,4.00
2023-02-27T05:42:30.540Z,8.00
2023-02-27T05:43:30.533Z,8.00
2023-02-27T05:44:30.545Z,8.00
2023-02-27T05:45:30.518Z,8.00
2023-02-27T05:46:31.566Z,12.00
2023-02-27T05:47:30.475Z,12.00
2023-02-27T05:48:30.486Z,16.00
2023-02-27T05:49:30.475Z,16.00
2023-02-27T05:50:30.454Z,20.00
2023-02-27T05:51:30.439Z,24.00
2023-02-27T05:52:30.399Z,28.00
2023-02-27T05:53:30.436Z,36.00
2023-02-27T05:54:30.362Z,40.00
2023-02-27T05:55:30.386Z,48.00
2023-02-27T05:56:30.381Z,60.00
2023-02-27T05:57:30.388Z,68.00
2023-02-27T05:58:30.372Z,80.00
2023-02-27T05:59:30.288Z,96.00
2023-02-27T06:00:31.321Z,108.00
2023-02-27T06:01:30.342Z,120.00
2023-02-27T06:02:30.373Z,140.00
2023-02-27T06:03:30.368Z,160.00
2023-02-27T06:04:30.284Z,180.00
2023-02-27T06:05:30.240Z,204.00
2023-02-27T06:06:30.241Z,228.00
2023-02-27T06:07:30.253Z,256.00
2023-02-27T06:08:30.210Z,284.00
2023-02-27T06:09:30.213Z,316.00
2023-02-27T06:10:30.216Z,344.00
2023-02-27T06:11:30.217Z,376.00
2023-02-27T06:12:30.230Z,412.00
2023-02-27T06:13:30.224Z,452.00
2023-02-27T06:14:30.224Z,492.00
2023-02-27T06:15:30.154Z,532.00
2023-02-27T06:16:30.679Z,572.00
2023-02-27T06:17:30.123Z,616.00
2023-02-27T06:18:30.113Z,660.00
2023-02-27T06:19:30.195Z,708.00
2023-02-27T06:20:30.095Z,752.00
2023-02-27T06:21:30.088Z,804.00
2023-02-27T06:22:30.074Z,852.00
2023-02-27T06:23:30.067Z,904.00
2023-02-27T06:24:30.092Z,952.00
2023-02-27T06:25:30.069Z,1008.00
2023-02-27T06:26:30.122Z,1064.00
2023-02-27T06:27:30.018Z,1124.00
2023-02-27T06:28:30.002Z,1176.00
2023-02-27T06:29:29.995Z,1236.00
2023-02-27T06:30:29.997Z,1304.00
2023-02-27T06:31:29.978Z,1372.00
2023-02-27T06:32:29.938Z,1448.00
2023-02-27T06:33:29.974Z,1524.00
2023-02-27T06:34:29.952Z,1600.00
2023-02-27T06:35:29.919Z,1680.00
2023-02-27T06:36:30.223Z,1936.00
2023-02-27T06:37:29.903Z,1976.00
2023-02-27T06:38:29.885Z,2160.00
2023-02-27T06:39:29.901Z,2228.00
2023-02-27T06:40:29.866Z,2228.00
2023-02-27T06:41:29.848Z,2232.00
2023-02-27T06:42:29.848Z,2436.00
2023-02-27T06:43:29.814Z,7488.00
2023-02-27T06:44:29.820Z,13856.00
2023-02-27T06:45:29.814Z,14592.00
2023-02-27T06:46:30.019Z,6804.00
2023-02-27T06:47:29.759Z,5228.00
2023-02-27T06:48:29.785Z,5916.00
2023-02-27T06:49:29.756Z,10912.00
2023-02-27T06:50:29.762Z,8812.00
2023-02-27T06:51:29.772Z,11168.00
2023-02-27T06:52:29.749Z,11232.00
2023-02-27T06:53:29.753Z,10848.00
2023-02-27T06:54:29.700Z,9312.00
2023-02-27T06:55:29.689Z,3992.00
2023-02-27T06:56:29.786Z,6656.00
2023-02-27T06:57:29.678Z,9708.00
2023-02-27T06:58:29.696Z,6992.00
2023-02-27T06:59:29.685Z,3904.00
2023-02-27T07:00:29.643Z,3972.00
2023-02-27T07:01:29.740Z,4120.00
2023-02-27T07:02:29.641Z,4156.00
2023-02-27T07:03:29.610Z,4296.00
2023-02-27T07:04:29.669Z,6996.00
2023-02-27T07:05:29.588Z,10488.00
2023-02-27T07:07:35.316Z,9724.00
2023-02-27T07:07:36.017Z,10380.00
2023-02-27T07:08:30.526Z,13920.00
2023-02-27T07:09:29.547Z,15584.00
2023-02-27T07:10:29.553Z,28864.00
2023-02-27T07:11:29.505Z,37088.00
2023-02-27T07:12:29.475Z,38048.00
2023-02-27T07:13:29.487Z,34080.00
2023-02-27T07:14:29.485Z,24448.00
2023-02-27T07:15:29.520Z,18688.00
2023-02-27T07:16:29.666Z,12392.00
2023-02-27T07:17:29.471Z,7784.00
2023-02-27T07:18:29.402Z,5112.00
2023-02-27T07:19:29.489Z,5108.00
2023-02-27T07:20:29.427Z,5432.00
2023-02-27T07:21:30.424Z,6156.00
2023-02-27T07:22:29.427Z,8516.00
2023-02-27T07:23:29.381Z,17440.00
2023-02-27T07:24:29.382Z,26176.00
2023-02-27T07:25:29.370Z,32192.00
2023-02-27T07:26:30.405Z,22144.00
2023-02-27T07:27:29.328Z,26848.00
2023-02-27T07:28:29.430Z,37536.00
2023-02-27T07:29:29.341Z,37632.00
2023-02-27T07:30:29.322Z,38784.00
2023-02-27T07:31:29.405Z,40448.00
2023-02-27T07:32:29.346Z,46688.00
2023-02-27T07:33:29.331Z,46784.00
2023-02-27T07:34:29.267Z,28768.00
2023-02-27T07:35:29.288Z,23104.00
2023-02-27T07:36:29.442Z,24256.00
2023-02-27T07:37:29.236Z,20512.00
2023-02-27T07:38:29.252Z,41568.00
2023-02-27T07:39:29.244Z,55424.00
2023-02-27T07:40:29.197Z,51104.00
2023-02-27T07:41:30.977Z,27232.00
2023-02-27T07:43:01.595Z,27680.00
2023-02-27T07:43:29.220Z,18432.00
2023-02-27T07:44:30.241Z,12632.00
2023-02-27T07:45:29.200Z,19712.00
2023-02-27T07:46:29.592Z,28096.00
2023-02-27T07:47:29.204Z,37632.00
2023-02-27T07:48:29.165Z,49920.00
2023-02-27T07:49:29.130Z,48896.00
2023-02-27T07:50:29.106Z,39072.00
2023-02-27T07:51:29.172Z,42784.00
2023-02-27T07:53:29.098Z,10120.00
2023-02-27T07:54:29.049Z,6132.00
2023-02-27T07:55:29.213Z,5932.00
2023-02-27T07:56:30.431Z,5932.00
2023-02-27T07:57:29.152Z,5972.00
2023-02-27T07:58:29.080Z,6044.00
2023-02-27T07:59:29.042Z,6216.00
2023-02-27T08:00:29.003Z,9964.00
2023-02-27T08:01:29.054Z,42208.00
2023-02-27T08:02:29.060Z,65760.00
2023-02-27T08:03:28.996Z,37344.00
2023-02-27T08:04:29.052Z,26176.00
2023-02-27T08:05:29.924Z,28768.00
2023-02-27T08:06:29.285Z,49056.00
2023-02-27T08:07:28.934Z,62656.00
2023-02-27T08:08:28.979Z,51232.00
2023-02-27T08:09:28.902Z,56448.00
2023-02-27T08:10:29.028Z,78368.00
2023-02-27T08:11:29.293Z,68224.00
2023-02-27T08:12:28.854Z,53248.00
2023-02-27T08:13:58.959Z,79296.00
2023-02-27T08:14:30.865Z,73632.00
2023-02-27T08:15:28.944Z,72096.00
2023-02-27T08:16:31.037Z,84096.00
2023-02-27T08:17:28.809Z,87552.00
2023-02-27T08:18:28.789Z,89152.00
2023-02-27T08:19:28.756Z,78368.00
2023-02-27T08:20:28.794Z,36768.00
2023-02-27T08:21:29.176Z,14736.00
2023-02-27T08:22:28.742Z,25216.00
2023-02-27T08:23:28.759Z,19296.00
2023-02-27T08:24:28.679Z,22784.00
2023-02-27T08:25:28.721Z,49056.00
2023-02-27T08:26:29.151Z,71104.00
2023-02-27T08:27:28.659Z,70336.00
2023-02-27T08:28:28.661Z,39840.00
2023-02-27T08:29:28.681Z,28128.00
2023-02-27T08:30:28.628Z,54656.00
2023-02-27T08:31:28.725Z,85408.00
2023-02-27T08:32:28.723Z,68480.00
2023-02-27T08:33:28.607Z,37664.00
2023-02-27T08:34:28.614Z,27552.00
2023-02-27T08:35:28.648Z,31584.00
2023-02-27T08:36:28.843Z,39296.00
2023-02-27T08:37:28.591Z,37696.00
2023-02-27T08:38:28.553Z,22304.00
2023-02-27T08:39:28.571Z,42464.00
2023-02-27T08:40:28.554Z,43840.00
2023-02-27T08:41:28.574Z,45472.00
2023-02-27T08:42:28.516Z,56192.00
2023-02-27T08:43:28.529Z,68800.00
2023-02-27T08:44:28.542Z,67872.00
2023-02-27T08:45:28.534Z,52000.00
2023-02-27T08:46:28.876Z,66176.00
2023-02-27T08:47:28.471Z,77984.00
2023-02-27T08:48:28.438Z,73888.00
2023-02-27T08:49:28.408Z,67232.00
2023-02-27T08:50:28.501Z,67680.00
2023-02-27T08:51:28.905Z,63200.00
2023-02-27T08:52:28.433Z,72064.00
2023-02-27T08:53:28.532Z,59168.00
2023-02-27T08:54:28.386Z,22336.00
2023-02-27T08:55:28.394Z,10552.00
2023-02-27T08:56:28.702Z,17792.00
2023-02-27T08:57:28.381Z,9668.00
2023-02-27T08:58:28.342Z,7916.00
2023-02-27T08:59:28.309Z,7896.00
2023-02-27T09:00:28.330Z,9080.00
2023-02-27T09:01:28.843Z,17120.00
2023-02-27T09:02:29.332Z,14276.00
2023-02-27T09:03:28.302Z,9172.00
2023-02-27T09:04:28.277Z,8280.00
2023-02-27T09:05:28.295Z,15536.00
2023-02-27T09:06:28.588Z,19072.00
2023-02-27T09:07:28.251Z,10756.00
2023-02-27T09:08:28.298Z,10584.00
2023-02-27T09:09:28.262Z,10880.00
2023-02-27T09:10:28.238Z,14460.00
2023-02-27T09:11:28.521Z,16156.00
2023-02-27T09:12:28.188Z,17984.00
2023-02-27T09:13:28.188Z,21440.00
2023-02-27T09:14:28.132Z,15852.00
2023-02-27T09:15:28.957Z,12424.00
2023-02-27T09:16:28.656Z,20448.00
2023-02-27T09:17:28.189Z,23968.00
2023-02-27T09:18:28.140Z,27840.00
2023-02-27T09:19:29.441Z,18944.00
2023-02-27T09:20:29.693Z,21408.00
2023-02-27T09:21:28.635Z,10212.00
2023-02-27T09:22:28.600Z,14428.00
2023-02-27T09:23:28.446Z,9676.00
2023-02-27T09:24:28.009Z,17600.00
2023-02-27T09:25:28.055Z,18176.00
2023-02-27T09:26:41.977Z,32032.00
2023-02-27T09:27:29.999Z,51136.00
2023-02-27T09:28:27.971Z,44352.00
2023-02-27T09:29:27.960Z,81248.00
2023-02-27T09:30:28.810Z,98720.00
2023-02-27T09:31:30.001Z,95072.00
2023-02-27T09:32:28.292Z,74272.00
2023-02-27T09:33:29.245Z,48704.00
2023-02-27T09:34:28.973Z,50176.00
2023-02-27T09:35:28.005Z,46240.00
2023-02-27T09:36:28.279Z,14552.00
2023-02-27T09:37:27.986Z,29792.00
2023-02-27T09:38:27.916Z,56224.00
2023-02-27T09:39:27.996Z,71424.00
2023-02-27T09:40:27.881Z,83520.00
2023-02-27T09:41:28.270Z,89152.00
2023-02-27T09:42:27.875Z,88128.00
2023-02-27T09:43:27.891Z,75296.00
2023-02-27T09:44:43.509Z,73600.00
2023-02-27T09:45:31.269Z,59360.00
2023-02-27T09:46:28.191Z,28864.00
2023-02-27T09:47:27.825Z,26464.00
2023-02-27T09:48:28.597Z,22880.00
2023-02-27T09:49:27.835Z,20800.00
2023-02-27T09:50:27.869Z,43648.00
2023-02-27T09:51:28.475Z,52224.00
2023-02-27T09:52:27.792Z,49088.00
2023-02-27T09:53:27.771Z,45344.00
2023-02-27T09:54:28.055Z,52704.00
2023-02-27T09:55:28.715Z,37184.00
2023-02-27T09:56:28.338Z,17664.00
2023-02-27T09:57:27.890Z,11148.00
2023-02-27T09:58:28.441Z,24352.00
2023-02-27T09:59:27.963Z,74432.00
2023-02-27T10:00:27.938Z,100000.00
2023-02-27T10:01:29.691Z,101824.00
2023-02-27T10:02:29.201Z,8752.00
2023-02-27T10:03:28.289Z,11676.00
2023-02-27T10:04:28.690Z,81408.00
2023-02-27T10:05:29.355Z,40096.00
2023-02-27T10:06:29.936Z,11260.00
2023-02-27T10:07:29.334Z,66848.00
2023-02-27T10:08:27.849Z,24416.00
2023-02-27T10:09:28.711Z,73504.00
2023-02-27T10:10:27.880Z,74176.00
2023-02-27T10:11:27.657Z,88736.00
2023-02-27T10:12:27.509Z,48160.00
2023-02-27T10:13:27.617Z,70144.00
2023-02-27T10:14:27.569Z,90976.00
2023-02-27T10:15:27.618Z,100928.00
2023-02-27T10:16:27.957Z,101568.00
2023-02-27T10:17:28.433Z,92224.00
2023-02-27T10:18:29.788Z,47968.00
2023-02-27T10:19:29.489Z,54272.00
2023-02-27T10:20:29.423Z,88608.00
2023-02-27T10:21:36.061Z,73376.00
2023-02-27T10:22:29.815Z,58880.00
2023-02-27T10:23:27.454Z,75200.00
2023-02-27T10:24:27.705Z,94208.00
2023-02-27T10:25:32.020Z,97120.00
2023-02-27T10:26:28.492Z,94368.00
2023-02-27T10:27:27.661Z,88544.00
2023-02-27T10:28:28.411Z,87744.00
2023-02-27T10:29:27.510Z,99456.00
2023-02-27T10:30:34.954Z,93664.00
2023-02-27T10:31:30.230Z,100960.00
2023-02-27T10:32:27.414Z,105088.00
2023-02-27T10:33:28.440Z,102336.00
2023-02-27T10:34:28.474Z,96096.00
2023-02-27T10:35:27.642Z,92864.00
2023-02-27T10:36:34.157Z,90816.00
2023-02-27T10:37:29.488Z,93248.00
2023-02-27T10:38:27.419Z,93408.00
2023-02-27T10:39:27.333Z,25216.00
2023-02-27T10:40:27.377Z,99424.00
2023-02-27T10:41:29.582Z,18304.00
2023-02-27T10:42:27.304Z,67104.00
2023-02-27T10:43:27.164Z,23680.00
2023-02-27T10:44:27.278Z,94016.00
2023-02-27T10:45:27.297Z,91424.00
2023-02-27T10:46:27.924Z,89888.00
2023-02-27T10:47:27.335Z,51552.00
2023-02-27T10:48:27.380Z,17600.00
2023-02-27T10:49:27.730Z,16704.00
2023-02-27T10:50:27.431Z,13700.00
2023-02-27T10:51:27.436Z,14764.00
2023-02-27T10:52:27.145Z,15400.00
2023-02-27T10:53:27.694Z,10928.00
2023-02-27T10:54:27.273Z,14772.00
2023-02-27T10:55:27.141Z,17248.00
2023-02-27T10:56:27.482Z,18816.00
2023-02-27T10:57:28.331Z,20992.00
2023-02-27T10:58:28.479Z,19680.00
2023-02-27T10:59:27.102Z,13692.00
2023-02-27T11:00:27.273Z,30272.00
2023-02-27T11:01:27.541Z,31136.00
2023-02-27T11:02:27.041Z,15944.00
2023-02-27T11:03:27.419Z,56672.00
2023-02-27T11:04:27.094Z,56096.00
2023-02-27T11:05:27.177Z,17856.00
2023-02-27T11:06:26.951Z,18336.00
2023-02-27T11:07:27.167Z,16704.00
2023-02-27T11:08:27.307Z,18496.00
2023-02-27T11:09:26.968Z,16384.00
2023-02-27T11:10:26.994Z,17792.00
2023-02-27T11:11:27.387Z,30080.00
2023-02-27T11:12:26.879Z,28704.00
2023-02-27T11:13:26.852Z,53728.00
2023-02-27T11:14:26.843Z,66784.00
2023-02-27T11:15:27.112Z,60928.00
2023-02-27T11:16:26.885Z,60064.00
2023-02-27T11:17:26.888Z,44128.00
2023-02-27T11:18:26.970Z,36192.00
2023-02-27T11:19:27.030Z,24192.00
2023-02-27T11:20:26.939Z,27520.00
2023-02-27T11:21:27.329Z,14188.00
2023-02-27T11:22:26.754Z,15680.00
2023-02-27T11:23:26.968Z,17280.00
2023-02-27T11:24:26.816Z,29984.00
2023-02-27T11:25:26.803Z,27200.00
2023-02-27T11:26:26.848Z,15996.00
2023-02-27T11:27:26.803Z,61920.00
2023-02-27T11:28:26.723Z,82656.00
2023-02-27T11:29:26.657Z,80096.00
2023-02-27T11:30:26.635Z,75392.00
2023-02-27T11:31:27.170Z,56064.00
2023-02-27T11:32:26.753Z,26944.00
2023-02-27T11:33:26.680Z,58624.00
2023-02-27T11:34:26.671Z,79008.00
2023-02-27T11:35:26.610Z,80000.00
2023-02-27T11:36:26.615Z,87936.00
2023-02-27T11:37:26.612Z,86496.00
2023-02-27T11:38:26.571Z,84224.00
2023-02-27T11:39:26.602Z,67904.00
2023-02-27T11:40:26.551Z,61056.00
2023-02-27T11:41:26.854Z,73952.00
2023-02-27T11:42:26.568Z,83392.00
2023-02-27T11:43:26.658Z,86016.00
2023-02-27T11:44:50.274Z,86016.00
2023-02-27T11:46:13.911Z,81184.00
2023-02-27T11:46:43.273Z,79296.00
2023-02-27T11:47:27.662Z,82848.00
2023-02-27T11:48:26.456Z,84832.00
2023-02-27T11:49:26.411Z,78336.00
2023-02-27T11:50:26.519Z,77792.00
2023-02-27T11:51:26.795Z,83712.00
2023-02-27T11:52:27.415Z,88800.00
2023-02-27T11:53:26.413Z,85088.00
2023-02-27T11:54:26.416Z,81184.00
2023-02-27T11:55:26.399Z,25152.00
2023-02-27T11:56:26.408Z,74368.00
2023-02-27T11:57:26.518Z,75648.00
2023-02-27T11:58:26.420Z,48512.00
2023-02-27T11:59:26.481Z,71232.00
2023-02-27T12:00:26.374Z,75680.00
2023-02-27T12:01:26.475Z,74336.00
2023-02-27T12:02:26.425Z,77696.00
2023-02-27T12:03:26.256Z,73248.00
2023-02-27T12:04:26.256Z,66112.00
2023-02-27T12:05:26.248Z,74944.00
2023-02-27T12:06:26.288Z,79008.00
2023-02-27T12:07:26.180Z,52096.00
2023-02-27T12:08:26.246Z,14532.00
2023-02-27T12:09:26.268Z,16352.00
2023-02-27T12:10:26.219Z,47776.00
2023-02-27T12:11:26.155Z,48960.00
2023-02-27T12:12:26.192Z,68800.00
2023-02-27T12:13:26.226Z,74816.00
2023-02-27T12:14:26.163Z,74720.00
2023-02-27T12:15:26.114Z,71968.00
2023-02-27T12:16:26.693Z,76640.00
2023-02-27T12:17:26.172Z,78848.00
2023-02-27T12:18:26.140Z,61696.00
2023-02-27T12:19:26.085Z,69280.00
2023-02-27T12:20:26.198Z,46848.00
2023-02-27T12:21:26.108Z,10584.00
2023-02-27T12:22:26.054Z,10108.00
2023-02-27T12:23:26.041Z,10780.00
2023-02-27T12:24:26.118Z,11620.00
2023-02-27T12:25:26.051Z,12784.00
2023-02-27T12:26:26.499Z,13216.00
2023-02-27T12:27:26.234Z,14092.00
2023-02-27T12:28:26.052Z,12848.00
2023-02-27T12:29:25.962Z,25312.00
2023-02-27T12:30:26.372Z,30752.00
2023-02-27T12:31:26.597Z,34784.00
2023-02-27T12:32:26.181Z,36064.00
2023-02-27T12:33:26.131Z,29216.00
2023-02-27T12:34:25.994Z,36736.00
2023-02-27T12:35:26.286Z,33088.00
2023-02-27T12:36:25.921Z,21760.00
2023-02-27T12:37:25.943Z,26208.00
2023-02-27T12:38:25.930Z,61024.00
2023-02-27T12:39:25.880Z,66752.00
2023-02-27T12:40:25.857Z,76896.00
2023-02-27T12:41:26.291Z,84288.00
2023-02-27T12:42:25.858Z,56000.00
2023-02-27T12:43:25.885Z,17056.00
2023-02-27T12:44:25.804Z,107232.00
2023-02-27T12:45:25.994Z,145056.00
2023-02-27T12:46:25.803Z,112128.00
2023-02-27T12:47:25.771Z,56512.00
2023-02-27T12:48:25.799Z,47008.00
2023-02-27T12:49:25.715Z,42656.00
2023-02-27T12:50:25.793Z,32160.00
2023-02-27T12:51:26.192Z,26304.00
2023-02-27T12:52:26.091Z,37696.00
2023-02-27T12:53:25.792Z,36672.00
2023-02-27T12:54:25.946Z,32224.00
2023-02-27T12:55:26.094Z,30688.00
2023-02-27T12:56:25.670Z,30176.00
2023-02-27T12:57:25.737Z,27872.00
2023-02-27T12:58:25.698Z,38752.00
2023-02-27T12:59:25.751Z,34400.00
2023-02-27T13:00:25.608Z,31744.00
2023-02-27T13:01:26.268Z,32160.00
2023-02-27T13:02:25.757Z,36160.00
2023-02-27T13:03:25.661Z,38080.00
2023-02-27T13:04:25.582Z,39456.00
2023-02-27T13:05:25.898Z,31328.00
2023-02-27T13:06:25.655Z,28960.00
2023-02-27T13:07:25.808Z,25760.00
2023-02-27T13:08:25.612Z,25632.00
2023-02-27T13:09:25.722Z,39616.00
2023-02-27T13:10:26.637Z,38240.00
2023-02-27T13:11:26.293Z,29984.00
2023-02-27T13:12:27.005Z,32416.00
2023-02-27T13:13:25.909Z,31136.00
2023-02-27T13:14:25.774Z,36224.00
2023-02-27T13:15:25.513Z,9144.00
2023-02-27T13:16:25.765Z,9152.00
2023-02-27T13:17:25.479Z,9368.00
2023-02-27T13:18:25.543Z,9404.00
2023-02-27T13:19:25.478Z,9492.00
2023-02-27T13:20:25.602Z,36192.00
2023-02-27T13:21:25.632Z,21440.00
2023-02-27T13:22:25.451Z,32992.00
2023-02-27T13:23:25.406Z,37856.00
2023-02-27T13:24:25.423Z,40160.00
2023-02-27T13:25:25.384Z,13504.00
2023-02-27T13:26:25.380Z,31776.00
2023-02-27T13:27:25.378Z,33536.00
2023-02-27T13:28:25.562Z,34208.00
2023-02-27T13:29:25.397Z,35552.00
2023-02-27T13:30:25.267Z,29152.00
2023-02-27T13:31:25.412Z,10016.00
2023-02-27T13:32:36.536Z,8576.00
2023-02-27T13:33:27.316Z,7564.00
2023-02-27T13:34:25.320Z,7228.00
2023-02-27T13:35:25.286Z,7044.00
2023-02-27T13:36:25.236Z,7148.00
2023-02-27T13:37:25.715Z,6436.00
2023-02-27T13:38:25.218Z,6508.00
2023-02-27T13:39:25.264Z,6368.00
2023-02-27T13:40:25.300Z,6124.00
2023-02-27T13:41:25.231Z,6008.00
2023-02-27T13:42:25.224Z,5964.00
2023-02-27T13:43:25.189Z,6452.00
2023-02-27T13:44:25.164Z,16768.00
2023-02-27T13:45:25.126Z,6620.00
2023-02-27T13:46:25.310Z,6916.00
2023-02-27T13:47:25.115Z,7864.00
2023-02-27T13:48:25.116Z,24672.00
2023-02-27T13:49:29.243Z,9300.00
2023-02-27T13:50:26.036Z,8936.00
2023-02-27T13:51:25.337Z,9052.00
2023-02-27T13:52:25.035Z,19104.00
2023-02-27T13:53:25.049Z,20384.00
2023-02-27T13:54:25.180Z,24224.00
2023-02-27T13:55:25.081Z,22432.00
2023-02-27T13:56:25.073Z,9380.00
2023-02-27T13:57:25.089Z,16320.00
2023-02-27T13:58:24.995Z,18144.00
2023-02-27T13:59:24.957Z,10628.00
2023-02-27T14:00:25.039Z,8736.00
2023-02-27T14:01:25.057Z,15712.00
2023-02-27T14:02:25.027Z,13728.00
2023-02-27T14:03:24.973Z,10348.00
2023-02-27T14:04:24.941Z,5424.00
2023-02-27T14:05:25.014Z,5136.00
2023-02-27T14:06:24.897Z,5240.00
2023-02-27T14:07:24.890Z,5496.00
2023-02-27T14:08:24.947Z,5900.00
2023-02-27T14:09:24.859Z,6420.00
2023-02-27T14:10:24.913Z,7008.00
2023-02-27T14:11:24.912Z,7556.00
2023-02-27T14:12:27.088Z,10480.00
2023-02-27T14:13:24.877Z,13952.00
2023-02-27T14:14:24.909Z,13704.00
2023-02-27T14:15:24.825Z,13204.00
2023-02-27T14:16:24.829Z,12580.00
2023-02-27T14:17:24.783Z,11832.00
2023-02-27T14:18:33.594Z,8840.00
2023-02-27T14:19:27.005Z,9540.00
2023-02-27T14:20:24.739Z,5672.00
2023-02-27T14:21:25.076Z,5440.00
2023-02-27T14:22:24.747Z,4820.00
2023-02-27T14:23:24.753Z,4784.00
2023-02-27T14:24:24.648Z,4088.00
2023-02-27T14:25:24.701Z,3916.00
2023-02-27T14:26:24.846Z,3776.00
2023-02-27T14:27:24.711Z,3752.00
2023-02-27T14:28:24.732Z,3700.00
2023-02-27T14:29:24.767Z,3680.00
2023-02-27T14:30:24.576Z,3668.00
2023-02-27T14:31:24.647Z,3724.00
2023-02-27T14:32:24.678Z,3808.00
2023-02-27T14:33:39.172Z,3920.00
2023-02-27T14:34:26.561Z,4028.00
2023-02-27T14:35:24.662Z,4156.00
2023-02-27T14:36:24.619Z,4288.00
2023-02-27T14:37:24.564Z,4504.00
2023-02-27T14:38:24.579Z,5140.00
2023-02-27T14:39:24.583Z,8408.00
2023-02-27T14:40:29.684Z,8632.00
2023-02-27T14:41:26.754Z,8880.00
2023-02-27T14:42:24.548Z,9004.00
2023-02-27T14:43:24.432Z,9020.00
2023-02-27T14:44:24.427Z,8920.00
2023-02-27T14:45:24.679Z,8652.00
2023-02-27T14:46:24.499Z,7272.00
2023-02-27T14:47:24.437Z,5808.00
2023-02-27T14:48:24.442Z,4812.00
2023-02-27T14:49:24.405Z,4532.00
2023-02-27T14:50:24.427Z,4288.00
2023-02-27T14:51:24.393Z,4132.00
2023-02-27T14:52:24.385Z,3888.00
2023-02-27T14:53:24.422Z,3712.00
2023-02-27T14:54:24.376Z,3504.00
2023-02-27T14:55:24.376Z,3348.00
2023-02-27T14:56:24.326Z,3192.00
2023-02-27T14:57:25.738Z,3136.00
2023-02-27T14:58:24.339Z,3180.00
2023-02-27T14:59:24.320Z,3268.00
2023-02-27T15:00:24.284Z,3340.00
2023-02-27T15:01:24.326Z,3452.00
2023-02-27T15:02:24.296Z,3568.00
2023-02-27T15:03:24.316Z,3596.00
2023-02-27T15:04:24.326Z,3552.00
2023-02-27T15:05:24.277Z,3424.00
2023-02-27T15:06:24.239Z,3232.00
2023-02-27T15:07:24.197Z,3076.00
2023-02-27T15:08:24.168Z,2956.00
2023-02-27T15:09:24.177Z,2920.00
2023-02-27T15:10:24.950Z,2904.00
2023-02-27T15:11:24.179Z,2852.00
2023-02-27T15:12:25.147Z,2748.00
2023-02-27T15:13:24.206Z,2596.00
2023-02-27T15:14:24.200Z,2432.00
2023-02-27T15:15:24.191Z,2280.00
2023-02-27T15:16:24.162Z,2156.00
2023-02-27T15:17:24.055Z,2060.00
2023-02-27T15:18:24.058Z,1988.00
2023-02-27T15:19:24.042Z,1948.00
2023-02-27T15:20:24.075Z,1932.00
2023-02-27T15:21:24.080Z,1924.00
2023-02-27T15:22:38.042Z,1908.00
2023-02-27T15:23:26.056Z,1904.00
2023-02-27T15:24:24.092Z,1920.00
2023-02-27T15:25:24.021Z,1936.00
2023-02-27T15:26:23.970Z,1944.00
2023-02-27T15:27:24.013Z,1952.00
2023-02-27T15:28:23.952Z,1972.00
2023-02-27T15:29:23.956Z,1984.00
2023-02-27T15:30:23.958Z,2000.00
2023-02-27T15:31:24.189Z,1996.00
2023-02-27T15:32:23.956Z,1968.00
2023-02-27T15:33:23.890Z,1928.00
2023-02-27T15:34:23.875Z,1856.00
2023-02-27T15:35:23.941Z,1732.00
2023-02-27T15:36:23.915Z,1612.00
2023-02-27T15:37:23.879Z,1516.00
2023-02-27T15:38:23.871Z,1452.00
2023-02-27T15:39:23.827Z,1400.00
2023-02-27T15:40:23.863Z,1368.00
2023-02-27T15:41:23.868Z,1316.00
2023-02-27T15:42:23.790Z,1252.00
2023-02-27T15:43:23.798Z,1164.00
2023-02-27T15:44:23.796Z,1132.00
2023-02-27T15:45:23.777Z,1084.00
2023-02-27T15:46:23.759Z,1060.00
2023-02-27T15:47:23.775Z,1060.00
2023-02-27T15:48:23.753Z,1084.00
2023-02-27T15:49:23.731Z,1116.00
2023-02-27T15:50:23.700Z,1144.00
2023-02-27T15:51:23.696Z,1176.00
2023-02-27T15:52:23.701Z,1200.00
2023-02-27T15:53:23.646Z,1220.00
2023-02-27T15:54:23.802Z,1236.00
2023-02-27T15:55:23.648Z,1240.00
2023-02-27T15:56:23.624Z,1228.00
2023-02-27T15:57:23.642Z,1200.00
2023-02-27T15:58:23.635Z,1160.00
2023-02-27T15:59:23.612Z,1112.00
2023-02-27T16:00:23.615Z,1052.00
2023-02-27T16:01:23.717Z,1012.00
2023-02-27T16:02:23.579Z,964.00
2023-02-27T16:03:23.603Z,912.00
2023-02-27T16:04:23.487Z,864.00
2023-02-27T16:05:23.529Z,788.00
2023-02-27T16:06:23.618Z,740.00
2023-02-27T16:07:24.571Z,692.00
2023-02-27T16:08:23.508Z,648.00
2023-02-27T16:09:23.447Z,612.00
2023-02-27T16:10:23.524Z,592.00
2023-02-27T16:11:23.483Z,584.00
2023-02-27T16:12:23.509Z,580.00
2023-02-27T16:13:23.475Z,584.00
2023-02-27T16:14:25.558Z,588.00
2023-02-27T16:15:23.370Z,584.00
2023-02-27T16:16:23.442Z,576.00
2023-02-27T16:17:23.441Z,568.00
2023-02-27T16:18:23.442Z,544.00
2023-02-27T16:19:23.480Z,520.00
2023-02-27T16:20:23.397Z,512.00
2023-02-27T16:21:23.388Z,504.00
2023-02-27T16:22:23.367Z,500.00
2023-02-27T16:23:23.372Z,516.00
2023-02-27T16:24:23.375Z,540.00
2023-02-27T16:25:23.310Z,564.00
2023-02-27T16:26:23.323Z,556.00
2023-02-27T16:27:23.375Z,548.00
2023-02-27T16:28:23.282Z,544.00
2023-02-27T16:29:23.317Z,536.00
2023-02-27T16:30:23.262Z,516.00
2023-02-27T16:31:23.291Z,496.00
2023-02-27T16:32:23.273Z,476.00
2023-02-27T16:33:23.252Z,460.00
2023-02-27T16:34:24.667Z,436.00
2023-02-27T16:35:23.243Z,404.00
2023-02-27T16:36:23.319Z,364.00
2023-02-27T16:37:23.249Z,348.00
2023-02-27T16:38:23.141Z,344.00
2023-02-27T16:39:23.272Z,344.00
2023-02-27T16:40:23.272Z,340.00
2023-02-27T16:41:23.323Z,324.00
2023-02-27T16:42:23.148Z,312.00
2023-02-27T16:43:23.080Z,304.00
2023-02-27T16:44:23.074Z,296.00
2023-02-27T16:45:23.141Z,292.00
2023-02-27T16:46:23.081Z,280.00
2023-02-27T16:47:23.090Z,268.00
2023-02-27T16:48:23.097Z,256.00
2023-02-27T16:49:23.055Z,244.00
2023-02-27T16:50:23.076Z,232.00
2023-02-27T16:51:23.045Z,220.00
2023-02-27T16:52:22.977Z,204.00
2023-02-27T16:53:23.003Z,196.00
2023-02-27T16:54:22.981Z,180.00
2023-02-27T16:55:23.888Z,172.00
2023-02-27T16:56:35.902Z,164.00
2023-02-27T16:57:24.986Z,148.00
2023-02-27T16:58:23.026Z,140.00
2023-02-27T16:59:23.053Z,124.00
2023-02-27T17:00:22.947Z,116.00
2023-02-27T17:01:23.036Z,104.00
2023-02-27T17:02:22.951Z,96.00
2023-02-27T17:03:22.873Z,88.00
2023-02-27T17:04:25.935Z,76.00
2023-02-27T17:05:23.891Z,68.00
2023-02-27T17:06:22.868Z,60.00
2023-02-27T17:07:23.434Z,52.00
2023-02-27T17:08:22.890Z,48.00
2023-02-27T17:09:22.873Z,40.00
2023-02-27T17:10:22.857Z,36.00
2023-02-27T17:11:22.829Z,28.00
2023-02-27T17:12:22.836Z,28.00
2023-02-27T17:13:22.750Z,20.00
2023-02-27T17:14:23.816Z,20.00